Time;durP1;ratioP1;P1;durP2;ratioP2;P2;SDS_P1;SDS_P2;PMS_P1;PMS_P2;Temp;Humidity;BMP_temperature;BMP_pressure;BME280_temperature;BME280_humidity;BME280_pressure;Samples;Min_cycle;Max_cycle;Signal;HPM_P1;HPM_P2
2022/03/21 02:09:30;;;;;;;;;;;;;;;4.54;42.34;99467.16;5159925;23;19926;-81
2022/03/21 02:11:58;;;;;;;;;;;;;;;4.66;42.51;99481.41;4961791;28;20021;-81
2022/03/21 02:14:26;;;;;;;;;;;;;;;4.42;43.07;99475.22;4956912;28;19980;-80
2022/03/21 02:16:54;;;;;;;;;;;;;;;4.24;43.50;99475.31;4944836;28;19949;-79
2022/03/21 02:19:23;;;;;;;;;;;;;;;4.25;43.50;99470.75;4936556;28;20338;-80
2022/03/21 02:21:53;;;;;;;;;;;;;;;4.46;42.38;99475.56;4960177;28;19930;-79
2022/03/21 02:24:23;;;;;;;;;;;;;;;4.45;42.99;99468.53;4926438;29;20293;-81
2022/03/21 02:26:52;;;;;;;;;;;;;;;4.47;42.79;99477.19;4951554;28;19930;-81
2022/03/21 02:29:20;;;;;;;;;;;;;;;4.58;42.73;99467.47;4923154;28;20293;-79
2022/03/21 02:31:49;;;;;;;;;;;;;;;4.59;42.84;99467.28;4966158;28;20029;-78
2022/03/21 02:34:17;;;;;;;;;;;;;;;4.64;42.18;99466.56;4961700;28;19938;-80
2022/03/21 02:36:44;;;;;;;;;;;;;;;4.09;43.73;99475.72;4963490;28;20022;-82
2022/03/21 02:39:12;;;;;;;;;;;;;;;4.09;43.37;99473.03;4957181;28;19929;-81
2022/03/21 02:41:40;;;;;;;;;;;;;;;4.17;43.50;99472.72;4962858;28;19998;-81
2022/03/21 02:44:09;;;;;;;;;;;;;;;4.53;42.30;99472.75;4931487;28;20072;-78
2022/03/21 02:46:38;;;;;;;;;;;;;;;4.49;42.41;99480.50;4942240;28;19937;-78
2022/03/21 02:49:06;;;;;;;;;;;;;;;4.23;42.50;99472.84;4962963;28;19930;-78
2022/03/21 02:51:34;;;;;;;;;;;;;;;4.39;42.22;99474.84;4958118;28;19926;-79
2022/03/21 02:54:03;;;;;;;;;;;;;;;3.93;43.89;99468.34;4961250;28;19942;-83
2022/03/21 02:56:31;;;;;;;;;;;;;;;3.63;44.47;99473.75;4957669;28;20380;-80
2022/03/21 02:59:00;;;;;;;;;;;;;;;4.05;43.22;99471.91;4958067;28;19927;-80
2022/03/21 03:01:30;;;;;;;;;;;;;;;4.28;42.87;99484.56;4956294;28;19956;-77
2022/03/21 03:03:59;;;;;;;;;;;;;;;4.43;42.42;99476.03;4962124;28;19933;-78
2022/03/21 03:06:28;;;;;;;;;;;;;;;4.28;42.75;99473.78;4958938;28;19977;-80
2022/03/21 03:08:56;;;;;;;;;;;;;;;4.15;43.39;99469.44;4950223;28;19930;-78
2022/03/21 03:11:24;;;;;;;;;;;;;;;4.08;42.90;99473.28;4960093;28;19930;-77
2022/03/21 03:13:52;;;;;;;;;;;;;;;4.09;43.03;99475.72;4955435;28;20412;-79
2022/03/21 03:16:20;;;;;;;;;;;;;;;4.01;43.20;99486.03;4955099;28;19926;-79
2022/03/21 03:18:59;;;;;;;;;;;;;;;3.80;43.93;99484.66;4948145;28;20119;-79
2022/03/21 03:21:38;;;;;;;;;;;;;;;3.52;44.09;99491.47;4943673;28;19949;-78
2022/03/21 03:24:08;;;;;;;;;;;;;;;3.74;43.82;99496.34;4963232;28;19969;-77
2022/03/21 03:26:36;;;;;;;;;;;;;;;3.77;43.93;99494.00;4955729;28;20021;-79
2022/03/21 03:29:06;;;;;;;;;;;;;;;3.91;43.25;99490.06;4965449;28;19948;-79
2022/03/21 03:31:34;;;;;;;;;;;;;;;3.60;43.80;99488.44;4957688;28;20045;-78
2022/03/21 03:34:04;;;;;;;;;;;;;;;3.38;43.94;99485.41;4958638;28;20349;-79
2022/03/21 03:36:32;;;;;;;;;;;;;;;3.70;43.48;99492.47;4961846;28;19944;-80
2022/03/21 03:38:59;;;;;;;;;;;;;;;3.67;43.29;99493.72;4943019;28;20314;-78
2022/03/21 03:41:28;;;;;;;;;;;;;;;3.64;43.67;99494.19;4954305;28;19926;-79
2022/03/21 03:43:56;;;;;;;;;;;;;;;3.63;43.61;99497.94;4958335;28;19944;-80
2022/03/21 03:46:24;;;;;;;;;;;;;;;3.61;43.28;99500.00;4956519;28;19993;-78
2022/03/21 03:48:54;;;;;;;;;;;;;;;3.60;43.77;99503.75;4958509;28;19926;-80
2022/03/21 03:51:26;;;;;;;;;;;;;;;3.35;44.20;99495.78;4956814;28;19930;-78
2022/03/21 03:53:54;;;;;;;;;;;;;;;3.37;43.89;99494.53;4954790;28;20326;-78
2022/03/21 03:56:22;;;;;;;;;;;;;;;3.39;44.01;99488.94;4952375;28;20029;-80
2022/03/21 03:58:50;;;;;;;;;;;;;;;3.20;44.57;99498.88;4960971;28;20337;-79
2022/03/21 04:01:18;;;;;;;;;;;;;;;3.30;44.50;99493.81;4943388;28;20415;-81
2022/03/21 04:03:46;;;;;;;;;;;;;;;3.55;43.50;99501.75;4957056;28;19926;-79
2022/03/21 04:06:15;;;;;;;;;;;;;;;3.37;43.83;99499.91;4958724;28;19933;-82
2022/03/21 04:08:45;;;;;;;;;;;;;;;3.38;43.50;99506.09;4956175;28;19957;-78
2022/03/21 04:11:14;;;;;;;;;;;;;;;3.26;44.20;99499.84;4955898;28;19985;-79
2022/03/21 04:13:43;;;;;;;;;;;;;;;3.38;43.47;99503.41;4938845;28;19962;-80
2022/03/21 04:16:11;;;;;;;;;;;;;;;3.24;43.97;99505.41;4961022;28;19926;-78
2022/03/21 04:18:39;;;;;;;;;;;;;;;2.88;45.25;99507.06;4956396;28;20449;-77
2022/03/21 04:21:24;;;;;;;;;;;;;;;2.90;45.18;99504.16;4956568;28;19931;-80
2022/03/21 04:23:53;;;;;;;;;;;;;;;3.16;44.11;99497.69;4936626;28;20272;-81
2022/03/21 04:26:21;;;;;;;;;;;;;;;3.24;43.92;99499.22;4951047;28;20001;-80
2022/03/21 04:28:50;;;;;;;;;;;;;;;3.21;44.17;99507.75;4951302;28;19927;-80
2022/03/21 04:31:18;;;;;;;;;;;;;;;3.08;44.28;99506.84;4944579;28;20303;-79
2022/03/21 04:33:46;;;;;;;;;;;;;;;3.01;44.60;99508.78;4957085;28;19934;-83
2022/03/21 04:36:14;;;;;;;;;;;;;;;3.04;44.53;99511.03;4928129;28;19981;-83
2022/03/21 04:38:45;;;;;;;;;;;;;;;2.89;45.04;99507.88;4963845;28;19932;-81
2022/03/21 04:41:15;;;;;;;;;;;;;;;2.96;44.79;99513.19;4954658;28;20048;-80
2022/03/21 04:43:43;;;;;;;;;;;;;;;2.55;45.98;99522.63;4956943;28;19991;-79
2022/03/21 04:46:10;;;;;;;;;;;;;;;2.78;45.17;99522.03;4960256;28;19997;-79
2022/03/21 04:48:38;;;;;;;;;;;;;;;2.60;45.70;99522.81;4959483;28;19988;-82
2022/03/21 04:51:06;;;;;;;;;;;;;;;2.94;45.05;99516.09;4958949;28;19933;-82
2022/03/21 04:53:34;;;;;;;;;;;;;;;2.96;45.17;99522.06;4965617;28;19926;-81
2022/03/21 04:56:02;;;;;;;;;;;;;;;2.84;45.07;99518.47;4961905;28;19927;-82
2022/03/21 04:58:34;;;;;;;;;;;;;;;2.87;45.06;99526.06;4957511;28;19930;-80
2022/03/21 05:01:02;;;;;;;;;;;;;;;3.03;44.50;99533.53;4961876;28;19926;-78
2022/03/21 05:03:32;;;;;;;;;;;;;;;3.02;44.60;99531.91;4959868;28;20608;-79
2022/03/21 05:06:00;;;;;;;;;;;;;;;2.86;45.12;99537.84;4947510;28;19927;-81
2022/03/21 05:08:29;;;;;;;;;;;;;;;2.73;44.94;99540.66;4956782;28;19938;-81
2022/03/21 05:10:57;;;;;;;;;;;;;;;2.61;45.20;99543.25;4941795;29;20445;-81
2022/03/21 05:13:25;;;;;;;;;;;;;;;2.43;45.69;99537.81;4930015;29;19927;-80
2022/03/21 05:15:55;;;;;;;;;;;;;;;2.54;45.73;99543.28;4923582;29;20021;-77
2022/03/21 05:18:23;;;;;;;;;;;;;;;2.77;44.83;99541.84;4952228;28;20377;-83
2022/03/21 05:20:51;;;;;;;;;;;;;;;2.90;44.76;99536.38;4925266;29;19987;-79
2022/03/21 05:31:42;;;;;;;;;;;;;;;2.78;44.30;99556.94;4929165;28;19955;-81
2022/03/21 05:36:55;;;;;;;;;;;;;;;2.56;45.56;99541.22;4930505;29;19953;-81
2022/03/21 05:39:23;;;;;;;;;;;;;;;2.35;45.64;99555.00;4942904;29;20316;-81
2022/03/21 05:41:54;;;;;;;;;;;;;;;2.74;44.56;99561.09;4914276;29;20414;-83
2022/03/21 05:44:24;;;;;;;;;;;;;;;2.87;44.49;99542.16;4928625;29;19927;-80
2022/03/21 05:46:53;;;;;;;;;;;;;;;2.90;44.49;99547.09;4931843;29;20000;-81
2022/03/21 05:49:19;;;;;;;;;;;;;;;2.77;44.73;99557.94;4927623;29;20018;-82
2022/03/21 05:51:47;;;;;;;;;;;;;;;2.79;44.41;99561.25;4922663;29;20405;-81
2022/03/21 05:54:16;;;;;;;;;;;;;;;2.78;44.66;99562.31;4930483;29;19931;-78
2022/03/21 05:56:44;;;;;;;;;;;;;;;2.73;44.30;99560.28;4929276;29;19990;-82
2022/03/21 06:02:01;;;;;;;;;;;;;;;2.62;45.06;99563.66;4940840;29;19937;-80
2022/03/21 06:04:31;;;;;;;;;;;;;;;2.80;44.66;99568.25;4921143;29;19926;-84
2022/03/21 06:06:59;;;;;;;;;;;;;;;2.69;45.00;99564.44;4945725;28;19941;-81
2022/03/21 06:09:32;;;;;;;;;;;;;;;2.61;45.12;99570.09;4954625;28;19927;-89
2022/03/21 06:12:00;;;;;;;;;;;;;;;2.68;45.00;99570.03;4932543;29;19927;-81
2022/03/21 06:14:28;;;;;;;;;;;;;;;2.80;44.49;99565.56;4933943;29;19990;-82
2022/03/21 06:16:56;;;;;;;;;;;;;;;2.67;44.75;99576.44;4920565;29;19981;-78
2022/03/21 06:19:25;;;;;;;;;;;;;;;2.68;45.22;99578.06;4918828;29;19934;-81
2022/03/21 06:21:53;;;;;;;;;;;;;;;2.73;44.75;99576.38;4918447;29;19931;-77
2022/03/21 06:24:21;;;;;;;;;;;;;;;2.75;44.62;99582.31;4940037;29;19933;-80
2022/03/21 06:26:50;;;;;;;;;;;;;;;2.74;44.56;99575.31;4923899;29;20034;-79
2022/03/21 06:29:18;;;;;;;;;;;;;;;2.97;44.10;99588.13;4935568;29;19998;-78
2022/03/21 06:31:45;;;;;;;;;;;;;;;3.04;43.92;99578.16;4931271;29;19937;-77
2022/03/21 06:34:14;;;;;;;;;;;;;;;3.11;43.75;99586.16;4923102;29;20368;-79
2022/03/21 06:36:45;;;;;;;;;;;;;;;2.74;44.23;99580.69;4944175;29;19978;-81
2022/03/21 06:39:15;;;;;;;;;;;;;;;2.70;44.97;99584.03;4929544;29;19985;-81
2022/03/21 06:44:43;;;;;;;;;;;;;;;2.80;44.30;99589.72;4931111;29;19927;-77
2022/03/21 06:47:14;;;;;;;;;;;;;;;3.01;44.25;99589.34;4936142;29;19926;-81
2022/03/21 06:49:43;;;;;;;;;;;;;;;3.13;43.94;99581.38;4945170;29;19966;-78
2022/03/21 06:52:13;;;;;;;;;;;;;;;3.19;43.72;99590.41;4937308;29;20003;-80
2022/03/21 06:54:42;;;;;;;;;;;;;;;3.21;44.01;99580.28;4945050;29;19926;-82
2022/03/21 06:57:10;;;;;;;;;;;;;;;3.26;43.47;99580.44;4930385;29;19975;-79
2022/03/21 06:59:38;;;;;;;;;;;;;;;3.46;43.73;99580.19;4936918;29;20001;-77
2022/03/21 07:02:06;;;;;;;;;;;;;;;3.56;43.33;99589.38;4923748;29;19937;-79
2022/03/21 07:04:34;;;;;;;;;;;;;;;3.66;42.54;99595.03;4936414;29;20410;-77
2022/03/21 07:07:02;;;;;;;;;;;;;;;3.76;42.70;99593.69;4927854;29;19955;-77
2022/03/21 07:09:31;;;;;;;;;;;;;;;3.34;43.54;99597.06;4940757;28;19938;-82
2022/03/21 07:12:02;;;;;;;;;;;;;;;3.19;44.37;99593.09;4948988;28;19931;-80
2022/03/21 07:14:39;;;;;;;;;;;;;;;3.33;43.90;99600.78;4941581;29;20403;-80
2022/03/21 07:17:07;;;;;;;;;;;;;;;3.55;43.65;99594.97;4943353;28;20069;-78
2022/03/21 07:19:35;;;;;;;;;;;;;;;3.78;43.17;99610.41;4940631;28;19965;-78
2022/03/21 07:22:04;;;;;;;;;;;;;;;3.92;42.59;99604.66;4939338;29;19927;-78
2022/03/21 07:24:33;;;;;;;;;;;;;;;3.74;42.70;99617.31;4938885;29;19969;-79
2022/03/21 07:27:00;;;;;;;;;;;;;;;3.95;43.03;99616.84;4950989;28;19942;-79
2022/03/21 07:29:28;;;;;;;;;;;;;;;4.11;42.48;99616.22;4925209;29;19930;-78
2022/03/21 07:31:57;;;;;;;;;;;;;;;4.08;42.07;99622.03;4943522;28;20630;-82
2022/03/21 07:34:25;;;;;;;;;;;;;;;4.33;41.62;99621.09;4935390;28;19927;-78
2022/03/21 07:36:53;;;;;;;;;;;;;;;4.47;41.92;99623.38;4957745;28;19956;-78
2022/03/21 07:39:22;;;;;;;;;;;;;;;4.62;41.20;99624.78;4955008;28;20033;-78
2022/03/21 07:42:16;;;;;;;;;;;;;;;4.56;40.55;99625.72;4922226;28;19927;-77
2022/03/21 07:47:44;;;;;;;;;;;;;;;5.01;40.31;99631.44;4905632;29;19927;-78
2022/03/21 07:50:17;;;;;;;;;;;;;;;4.94;39.50;99633.41;4925619;29;20013;-79
2022/03/21 07:52:45;;;;;;;;;;;;;;;5.02;40.31;99633.06;4962667;28;19933;-81
2022/03/21 07:55:13;;;;;;;;;;;;;;;5.23;39.42;99626.28;4954149;28;19949;-82
2022/03/21 07:57:41;;;;;;;;;;;;;;;5.39;40.07;99630.16;4954313;28;19930;-77
2022/03/21 08:00:11;;;;;;;;;;;;;;;5.45;39.91;99634.59;4957411;28;20025;-78
2022/03/21 08:02:42;;;;;;;;;;;;;;;5.62;39.38;99630.13;4950538;28;20024;-77
2022/03/21 08:05:10;;;;;;;;;;;;;;;5.89;38.67;99635.00;4953953;28;19972;-78
2022/03/21 08:10:56;;;;;;;;;;;;;;;5.99;37.88;99635.22;4946502;28;19948;-80
2022/03/21 08:13:26;;;;;;;;;;;;;;;5.83;37.91;99641.34;4912082;29;20338;-76
2022/03/21 08:15:55;;;;;;;;;;;;;;;6.19;38.12;99645.63;4938632;29;19926;-81
2022/03/21 08:18:23;;;;;;;;;;;;;;;6.05;37.36;99639.66;4934114;29;20022;-78
2022/03/21 08:20:52;;;;;;;;;;;;;;;6.04;37.17;99635.34;4937281;29;19939;-76
2022/03/21 08:23:19;;;;;;;;;;;;;;;6.32;37.41;99636.41;4935358;29;20017;-78
2022/03/21 08:25:48;;;;;;;;;;;;;;;6.25;38.31;99639.25;4938303;29;20048;-77
2022/03/21 08:31:09;;;;;;;;;;;;;;;6.62;36.41;99642.38;4921340;29;19962;-77
2022/03/21 08:33:37;;;;;;;;;;;;;;;6.70;36.61;99641.97;4936120;29;20311;-78
2022/03/21 08:36:07;;;;;;;;;;;;;;;6.99;36.73;99644.63;4933229;29;19934;-78
2022/03/21 08:38:35;;;;;;;;;;;;;;;7.17;36.86;99641.66;4934542;29;20013;-79
2022/03/21 08:41:05;;;;;;;;;;;;;;;7.17;35.56;99644.38;4939549;29;20506;-79
2022/03/21 08:43:36;;;;;;;;;;;;;;;6.94;35.50;99639.94;4932944;29;19997;-79
2022/03/21 08:46:08;;;;;;;;;;;;;;;7.01;35.73;99632.50;4935577;29;19935;-78
2022/03/21 08:51:43;;;;;;;;;;;;;;;7.63;35.75;99628.81;4927759;29;19927;-76
2022/03/21 08:54:12;;;;;;;;;;;;;;;7.92;35.65;99625.94;4930588;29;19927;-76
2022/03/21 08:56:40;;;;;;;;;;;;;;;8.13;34.76;99627.81;4932950;29;19931;-76
2022/03/21 08:59:08;;;;;;;;;;;;;;;8.20;34.76;99614.88;4924613;28;19927;-76
2022/03/21 09:01:38;;;;;;;;;;;;;;;8.26;34.61;99615.78;4924822;29;19927;-77
2022/03/21 09:04:08;;;;;;;;;;;;;;;8.48;32.36;99613.06;4935292;28;19927;-77
2022/03/21 09:09:34;;;;;;;;;;;;;;;8.55;32.75;99613.66;4947849;28;19938;-78
2022/03/21 09:12:03;;;;;;;;;;;;;;;8.77;33.86;99611.69;4940521;28;19973;-75
2022/03/21 09:14:30;;;;;;;;;;;;;;;9.00;33.08;99604.28;4941879;29;19930;-76
2022/03/21 09:17:03;;;;;;;;;;;;;;;8.36;31.83;99605.91;4951626;28;20025;-77
2022/03/21 09:19:31;;;;;;;;;;;;;;;8.63;32.77;99605.91;4954063;28;20354;-76
2022/03/21 09:21:59;;;;;;;;;;;;;;;8.91;31.95;99596.66;4935210;29;19930;-77
2022/03/21 09:24:29;;;;;;;;;;;;;;;9.09;31.00;99602.75;4951762;28;19931;-77
2022/03/21 09:26:57;;;;;;;;;;;;;;;9.36;32.28;99603.47;4949107;28;19926;-75
2022/03/21 09:29:31;;;;;;;;;;;;;;;9.34;29.38;99600.22;4947241;28;20454;-76
2022/03/21 09:32:01;;;;;;;;;;;;;;;9.50;31.25;99608.44;4931326;28;20227;-76
2022/03/21 09:34:28;;;;;;;;;;;;;;;9.73;30.26;99601.78;4946543;28;20471;-77
2022/03/21 09:36:56;;;;;;;;;;;;;;;9.70;29.33;99603.13;4947442;28;19930;-75
2022/03/21 09:39:24;;;;;;;;;;;;;;;10.00;30.52;99601.59;4945899;28;19934;-75
2022/03/21 09:41:54;;;;;;;;;;;;;;;9.99;30.08;99595.38;4944221;28;20022;-75
2022/03/21 09:44:23;;;;;;;;;;;;;;;10.00;29.83;99596.19;4953071;28;20263;-75
2022/03/21 09:46:51;;;;;;;;;;;;;;;9.77;29.42;99598.25;4928315;28;19979;-77
2022/03/21 09:49:20;;;;;;;;;;;;;;;9.87;29.67;99598.31;4925206;29;20374;-76
2022/03/21 09:51:49;;;;;;;;;;;;;;;9.93;29.64;99588.28;4921784;28;20297;-77
2022/03/21 09:54:17;;;;;;;;;;;;;;;9.82;29.68;99597.47;4952403;28;19933;-77
2022/03/21 09:56:48;;;;;;;;;;;;;;;9.92;30.15;99584.75;4941556;28;19930;-80
2022/03/21 09:59:16;;;;;;;;;;;;;;;10.16;28.96;99595.13;4927546;28;19930;-76
2022/03/21 10:01:45;;;;;;;;;;;;;;;10.26;28.50;99595.22;4940449;28;19954;-78
2022/03/21 10:04:13;;;;;;;;;;;;;;;9.94;29.59;99593.44;4949130;28;19927;-78
2022/03/21 10:06:49;;;;;;;;;;;;;;;10.25;28.67;99603.63;4930038;29;19931;-84
2022/03/21 10:09:19;;;;;;;;;;;;;;;10.48;29.84;99601.22;4940840;28;19926;-85
2022/03/21 10:12:12;;;;;;;;;;;;;;;10.57;29.11;99596.09;4942141;28;19926;-79
2022/03/21 10:14:40;;;;;;;;;;;;;;;11.01;29.13;99596.38;4937961;28;19927;-77
2022/03/21 10:17:11;;;;;;;;;;;;;;;11.13;28.47;99595.25;4949910;28;19926;-75
2022/03/21 10:19:43;;;;;;;;;;;;;;;11.27;27.99;99594.44;4949362;28;20582;-75
2022/03/21 10:22:13;;;;;;;;;;;;;;;11.48;27.61;99587.03;4953530;28;19930;-75
2022/03/21 10:24:42;;;;;;;;;;;;;;;11.18;27.22;99585.19;4957973;28;19926;-75
2022/03/21 10:27:24;;;;;;;;;;;;;;;11.47;27.63;99588.16;4950629;28;19933;-77
2022/03/21 10:29:53;;;;;;;;;;;;;;;11.15;27.61;99582.22;4953307;28;19970;-75
2022/03/21 10:32:31;;;;;;;;;;;;;;;11.06;27.17;99581.94;4944237;28;19927;-77
2022/03/21 10:35:02;;;;;;;;;;;;;;;11.51;29.44;99581.06;4940425;29;19927;-75
2022/03/21 10:37:58;;;;;;;;;;;;;;;11.50;27.12;99582.16;4932540;28;19930;-75
2022/03/21 10:40:30;;;;;;;;;;;;;;;11.64;28.37;99571.47;4902798;28;19981;-75
2022/03/21 10:42:59;;;;;;;;;;;;;;;11.91;27.96;99570.31;4922062;29;19973;-75
2022/03/21 10:45:40;;;;;;;;;;;;;;;11.83;28.05;99569.00;4945394;28;19926;-77
2022/03/21 10:48:08;;;;;;;;;;;;;;;11.61;27.39;99577.50;4947907;28;19927;-77
2022/03/21 10:50:39;;;;;;;;;;;;;;;11.68;27.46;99569.84;4951392;28;19927;-77
2022/03/21 10:53:09;;;;;;;;;;;;;;;11.83;27.69;99562.75;4954631;28;19934;-75
2022/03/21 10:55:38;;;;;;;;;;;;;;;12.15;26.93;99565.84;4959655;28;19926;-75
2022/03/21 10:58:06;;;;;;;;;;;;;;;12.30;27.12;99554.88;4964231;28;19937;-75
2022/03/21 11:00:36;;;;;;;;;;;;;;;12.56;26.58;99557.41;4947135;28;19962;-75
2022/03/21 11:03:06;;;;;;;;;;;;;;;12.33;26.49;99550.75;4952303;28;19926;-75
2022/03/21 11:05:35;;;;;;;;;;;;;;;11.99;26.86;99554.22;4948323;28;19926;-75
2022/03/21 11:08:28;;;;;;;;;;;;;;;12.39;26.15;99552.34;4949506;28;20349;-75
2022/03/21 11:10:58;;;;;;;;;;;;;;;12.04;25.72;99548.75;4922116;29;20337;-78
2022/03/21 11:13:27;;;;;;;;;;;;;;;11.96;25.98;99546.59;4949150;28;19926;-77
2022/03/21 11:15:55;;;;;;;;;;;;;;;12.17;27.46;99546.50;4950238;28;19930;-75
2022/03/21 11:18:23;;;;;;;;;;;;;;;12.17;27.78;99546.50;4947602;28;20376;-74
2022/03/21 11:20:52;;;;;;;;;;;;;;;11.98;27.49;99533.50;4947561;28;19973;-77
2022/03/21 11:23:21;;;;;;;;;;;;;;;11.66;26.47;99546.69;4946506;28;20451;-77
2022/03/21 11:25:50;;;;;;;;;;;;;;;11.75;26.44;99534.94;4950481;28;20495;-77
2022/03/21 11:28:43;;;;;;;;;;;;;;;11.41;26.57;99540.28;4937308;28;20033;-75
2022/03/21 11:31:16;;;;;;;;;;;;;;;11.48;28.02;99539.97;4955496;28;19997;-75
2022/03/21 11:33:46;;;;;;;;;;;;;;;12.07;26.39;99534.53;4922419;28;19998;-76
2022/03/21 11:36:14;;;;;;;;;;;;;;;12.46;26.96;99531.00;4952469;28;19933;-75
2022/03/21 11:38:47;;;;;;;;;;;;;;;12.29;26.18;99534.13;4954874;28;19926;-77
2022/03/21 11:41:15;;;;;;;;;;;;;;;12.50;26.35;99528.53;4944019;28;20339;-75
2022/03/21 11:43:44;;;;;;;;;;;;;;;12.73;25.68;99521.53;4953539;28;19994;-75
2022/03/21 11:46:29;;;;;;;;;;;;;;;12.99;26.15;99527.56;4957651;28;19927;-75
2022/03/21 11:49:00;;;;;;;;;;;;;;;12.76;25.00;99513.59;4930262;28;20293;-75
2022/03/21 11:51:38;;;;;;;;;;;;;;;12.83;25.94;99521.44;4934426;28;20000;-76
2022/03/21 11:54:07;;;;;;;;;;;;;;;13.08;26.81;99514.94;4928494;28;19946;-75
2022/03/21 11:56:53;;;;;;;;;;;;;;;13.13;26.54;99520.34;4954624;28;19977;-76
2022/03/21 11:59:39;;;;;;;;;;;;;;;12.99;25.52;99509.28;4946186;28;19927;-77
2022/03/21 12:02:23;;;;;;;;;;;;;;;13.05;25.64;99507.34;4940003;28;20014;-76
2022/03/21 12:04:57;;;;;;;;;;;;;;;12.73;25.00;99497.00;4929303;29;20269;-77
2022/03/21 12:07:29;;;;;;;;;;;;;;;12.42;25.79;99500.00;4949369;28;20002;-76
2022/03/21 12:10:46;;;;;;;;;;;;;;;12.83;25.79;99497.72;4933322;29;19981;-76
2022/03/21 12:13:19;;;;;;;;;;;;;;;12.83;26.72;99494.16;4926438;29;20380;-77
2022/03/21 12:15:50;;;;;;;;;;;;;;;13.05;26.16;99491.78;4936945;29;19949;-77
2022/03/21 12:18:19;;;;;;;;;;;;;;;12.78;25.17;99489.59;4932597;29;19931;-80
2022/03/21 12:20:49;;;;;;;;;;;;;;;12.83;25.32;99483.25;4934062;29;19931;-77
2022/03/21 12:23:18;;;;;;;;;;;;;;;12.89;25.63;99479.41;4932100;29;19977;-79
2022/03/21 12:25:47;;;;;;;;;;;;;;;12.99;25.16;99476.56;4932306;29;20152;-78
2022/03/21 12:29:31;;;;;;;;;;;;;;;13.06;25.76;99473.50;4938706;29;20305;-79
2022/03/21 12:31:23;;;;;;;;;;;;;;;13.07;26.60;99470.47;4924420;29;19934;-75
2022/03/21 12:33:54;;;;;;;;;;;;;;;13.08;24.78;99469.38;4938525;28;19938;-79
2022/03/21 12:36:33;;;;;;;;;;;;;;;12.73;25.97;99464.28;4932772;29;19934;-80
2022/03/21 12:39:01;;;;;;;;;;;;;;;12.83;26.10;99461.44;4925943;29;19931;-80
2022/03/21 12:41:32;;;;;;;;;;;;;;;13.19;25.37;99455.63;4928946;29;19933;-79
2022/03/21 12:44:00;;;;;;;;;;;;;;;12.98;26.39;99455.84;4933551;29;19931;-80
2022/03/21 12:46:28;;;;;;;;;;;;;;;13.21;28.48;99457.00;4927534;29;19934;-79
2022/03/21 12:48:58;;;;;;;;;;;;;;;13.48;25.50;99448.19;4931631;28;19973;-77
2022/03/21 12:51:31;;;;;;;;;;;;;;;13.77;25.71;99450.81;4940589;29;20006;-76
2022/03/21 12:54:24;;;;;;;;;;;;;;;14.02;26.17;99449.63;4942379;29;19938;-76
2022/03/21 12:56:51;;;;;;;;;;;;;;;14.15;24.91;99453.53;4933708;29;19931;-76
2022/03/21 12:59:21;;;;;;;;;;;;;;;14.27;25.51;99445.66;4930376;29;20384;-76
2022/03/21 13:01:49;;;;;;;;;;;;;;;14.22;24.00;99442.19;4940192;28;19927;-75
2022/03/21 13:12:38;;;;;;;;;;;;;;;13.83;24.51;99440.63;4940631;28;19954;-78
2022/03/21 13:15:07;;;;;;;;;;;;;;;13.77;24.31;99445.34;4929162;29;20047;-78
2022/03/21 13:17:45;;;;;;;;;;;;;;;14.08;23.72;99442.16;4927138;29;19930;-76
2022/03/21 13:20:14;;;;;;;;;;;;;;;14.08;23.67;99432.03;4925142;29;19931;-76
2022/03/21 13:22:42;;;;;;;;;;;;;;;13.89;24.67;99431.22;4943207;28;20037;-78
2022/03/21 13:25:25;;;;;;;;;;;;;;;13.36;23.86;99428.69;4928094;29;19928;-80
2022/03/21 13:27:53;;;;;;;;;;;;;;;13.69;24.66;99428.78;4927962;29;19931;-78
2022/03/21 13:30:20;;;;;;;;;;;;;;;13.74;25.33;99431.44;4937280;29;19964;-76
2022/03/21 13:32:48;;;;;;;;;;;;;;;14.00;24.32;99423.69;4932781;29;19931;-76
2022/03/21 13:35:16;;;;;;;;;;;;;;;14.11;24.76;99428.72;4924870;29;20251;-75
2022/03/21 13:37:44;;;;;;;;;;;;;;;13.91;24.69;99433.69;4944614;29;19927;-78
2022/03/21 13:40:13;;;;;;;;;;;;;;;14.07;23.83;99424.16;4930214;29;19937;-76
2022/03/21 13:42:42;;;;;;;;;;;;;;;14.08;24.97;99415.66;4925572;29;20385;-77
2022/03/21 13:45:12;;;;;;;;;;;;;;;14.16;26.87;99422.34;4930127;29;19934;-75
2022/03/21 13:47:46;;;;;;;;;;;;;;;14.16;24.09;99416.88;4934954;29;19957;-75
2022/03/21 13:50:17;;;;;;;;;;;;;;;13.91;24.56;99420.84;4934038;29;19930;-74
2022/03/21 13:52:46;;;;;;;;;;;;;;;14.16;23.88;99414.16;4930152;29;19927;-75
2022/03/21 13:55:15;;;;;;;;;;;;;;;14.00;23.81;99418.22;4934009;29;21257;-75
2022/03/21 13:57:45;;;;;;;;;;;;;;;14.24;24.87;99412.66;4938250;29;20018;-75
2022/03/21 14:00:14;;;;;;;;;;;;;;;14.02;23.89;99411.38;4932575;29;19946;-78
2022/03/21 14:02:42;;;;;;;;;;;;;;;14.16;23.25;99412.22;4938866;29;19927;-76
2022/03/21 14:05:14;;;;;;;;;;;;;;;14.26;23.56;99410.44;4944538;29;20350;-76
2022/03/21 14:07:48;;;;;;;;;;;;;;;14.39;24.08;99413.22;4942283;29;19950;-76
2022/03/21 14:10:18;;;;;;;;;;;;;;;14.35;24.03;99403.19;4934057;29;19982;-75
2022/03/21 14:12:51;;;;;;;;;;;;;;;14.23;25.90;99411.06;4940505;29;20029;-75
2022/03/21 14:15:20;;;;;;;;;;;;;;;14.21;24.07;99413.25;4947662;29;19927;-76
2022/03/21 14:17:48;;;;;;;;;;;;;;;14.35;26.17;99414.13;4940712;29;20381;-76
2022/03/21 14:29:13;;;;;;;;;;;;;;;14.37;22.62;99401.75;4950010;28;20369;-75
2022/03/21 14:31:41;;;;;;;;;;;;;;;14.23;24.62;99406.41;4955729;28;20411;-75
2022/03/21 14:34:11;;;;;;;;;;;;;;;14.12;24.80;99397.56;4949303;28;19927;-74
2022/03/21 14:36:39;;;;;;;;;;;;;;;14.15;24.97;99396.94;4939773;28;19993;-75
2022/03/21 14:39:08;;;;;;;;;;;;;;;14.11;25.66;99393.19;4944528;28;20029;-75
2022/03/21 14:41:36;;;;;;;;;;;;;;;14.11;25.01;99392.38;4949217;28;19993;-76
2022/03/21 14:44:04;;;;;;;;;;;;;;;13.82;23.27;99398.81;4950473;28;19927;-76
2022/03/21 14:46:38;;;;;;;;;;;;;;;13.79;23.52;99395.88;4949802;29;20356;-76
2022/03/21 14:49:06;;;;;;;;;;;;;;;13.77;24.26;99392.63;4953820;28;19934;-77
2022/03/21 14:51:35;;;;;;;;;;;;;;;13.84;23.68;99393.06;4949383;28;19998;-76
2022/03/21 14:54:04;;;;;;;;;;;;;;;13.96;24.97;99393.44;4968648;28;19931;-76
2022/03/21 14:56:34;;;;;;;;;;;;;;;13.81;23.95;99388.22;4950904;28;19934;-76
2022/03/21 14:59:01;;;;;;;;;;;;;;;13.80;24.16;99389.31;4951507;28;20025;-76
2022/03/21 15:01:29;;;;;;;;;;;;;;;13.92;25.08;99384.22;4954275;28;19981;-76
2022/03/21 15:03:58;;;;;;;;;;;;;;;13.68;24.30;99378.81;4950669;28;20009;-76
2022/03/21 15:06:26;;;;;;;;;;;;;;;13.86;25.42;99385.41;4954118;28;19969;-76
2022/03/21 15:08:54;;;;;;;;;;;;;;;14.01;25.78;99379.69;4953849;28;20016;-76
2022/03/21 15:11:23;;;;;;;;;;;;;;;13.91;24.49;99381.78;4951258;28;19974;-77
2022/03/21 15:13:51;;;;;;;;;;;;;;;13.78;25.84;99386.06;4952398;28;20309;-76
2022/03/21 15:16:19;;;;;;;;;;;;;;;13.81;26.75;99380.00;4946042;28;19927;-76
2022/03/21 15:18:47;;;;;;;;;;;;;;;13.79;27.21;99380.28;4946400;28;19946;-76
2022/03/21 15:21:18;;;;;;;;;;;;;;;14.06;25.22;99374.16;4957780;28;19946;-78
2022/03/21 15:23:48;;;;;;;;;;;;;;;14.00;24.69;99375.31;4945886;28;19935;-76
2022/03/21 15:26:18;;;;;;;;;;;;;;;13.99;25.02;99370.97;4953531;28;20127;-76
2022/03/21 15:28:46;;;;;;;;;;;;;;;14.05;26.41;99372.50;4951705;28;19942;-76
2022/03/21 15:31:15;;;;;;;;;;;;;;;14.01;25.20;99376.97;4951347;28;20419;-76
2022/03/21 15:33:43;;;;;;;;;;;;;;;14.05;24.58;99374.44;4953079;28;19933;-75
2022/03/21 15:41:42;;;;;;;;;;;;;;;13.95;25.66;99375.41;4947633;28;19934;-75
2022/03/21 15:44:11;;;;;;;;;;;;;;;13.44;25.35;99373.44;4946223;28;20333;-75
2022/03/21 15:46:39;;;;;;;;;;;;;;;13.40;24.88;99372.41;4928410;29;19937;-77
2022/03/21 15:49:07;;;;;;;;;;;;;;;13.64;25.33;99377.81;4946504;28;20019;-75
2022/03/21 15:51:35;;;;;;;;;;;;;;;13.57;25.77;99374.63;4949115;29;19927;-76
2022/03/21 15:54:05;;;;;;;;;;;;;;;13.74;25.92;99374.09;4944566;28;19938;-77
2022/03/21 15:56:38;;;;;;;;;;;;;;;13.70;25.13;99373.09;4949185;28;20357;-76
2022/03/21 15:59:06;;;;;;;;;;;;;;;13.59;25.43;99370.50;4946687;29;19954;-78
2022/03/21 16:01:34;;;;;;;;;;;;;;;13.69;36.64;99376.91;4951171;28;19959;-78
2022/03/21 16:04:03;;;;;;;;;;;;;;;13.57;33.59;99380.88;4963904;28;19954;-78
2022/03/21 16:06:31;;;;;;;;;;;;;;;13.26;34.73;99372.31;4947689;29;19934;-77
2022/03/21 16:09:01;;;;;;;;;;;;;;;13.11;32.59;99370.56;4949687;28;20001;-78
2022/03/21 16:11:30;;;;;;;;;;;;;;;12.64;33.84;99373.31;4942260;29;20416;-77